createdAt,value
2023-02-12T00:03:09.074Z,3.57
2023-02-12T00:08:12.442Z,3.66
2023-02-12T00:13:16.120Z,3.64
2023-02-12T00:18:18.701Z,3.60
2023-02-12T00:23:21.128Z,3.69
2023-02-12T00:28:23.557Z,3.71
2023-02-12T00:33:26.053Z,3.70
2023-02-12T00:38:28.530Z,3.71
2023-02-12T00:43:31.149Z,3.71
2023-02-12T00:48:33.615Z,3.70
2023-02-12T00:53:36.003Z,3.64
2023-02-12T00:58:38.418Z,3.56
2023-02-12T01:03:40.964Z,3.66
2023-02-12T01:08:43.373Z,3.60
2023-02-12T01:13:45.792Z,3.66
2023-02-12T01:18:48.234Z,3.68
2023-02-12T01:23:50.669Z,3.74
2023-02-12T01:28:53.039Z,3.64
2023-02-12T01:33:55.407Z,3.62
2023-02-12T01:38:57.986Z,3.59
2023-02-12T01:44:00.564Z,3.47
2023-02-12T01:49:03.015Z,3.41
2023-02-12T01:54:05.555Z,3.52
2023-02-12T01:59:07.935Z,3.61
2023-02-12T02:04:10.195Z,3.56
2023-02-12T02:09:12.747Z,3.62
2023-02-12T02:14:32.583Z,3.66
2023-02-12T02:19:35.224Z,3.67
2023-02-12T02:24:37.552Z,3.61
2023-02-12T02:29:39.893Z,3.58
2023-02-12T02:34:42.204Z,3.55
2023-02-12T02:39:44.533Z,3.50
2023-02-12T02:44:46.898Z,3.63
2023-02-12T02:49:49.379Z,3.66
2023-02-12T02:54:51.747Z,3.66
2023-02-12T02:59:54.032Z,3.61
2023-02-12T03:04:56.556Z,3.68
2023-02-12T03:09:59.545Z,3.71
2023-02-12T03:15:02.093Z,3.65
2023-02-12T03:20:04.513Z,3.56
2023-02-12T03:25:09.607Z,3.52
2023-02-12T03:30:12.182Z,3.45
2023-02-12T03:35:14.505Z,3.53
2023-02-12T03:40:16.797Z,3.56
2023-02-12T03:45:19.150Z,3.44
2023-02-12T03:50:21.414Z,3.59
2023-02-12T03:55:23.703Z,3.63
2023-02-12T04:00:26.102Z,3.48
2023-02-12T04:05:28.502Z,3.56
2023-02-12T04:10:30.786Z,3.44
2023-02-12T04:15:33.292Z,3.53
2023-02-12T04:20:35.802Z,3.46
2023-02-12T04:25:38.395Z,3.50
2023-02-12T04:30:40.956Z,3.55
2023-02-12T04:35:43.430Z,3.52
2023-02-12T04:40:45.850Z,3.47
2023-02-12T04:45:48.201Z,3.51
2023-02-12T04:50:50.492Z,3.50
2023-02-12T04:55:53.048Z,3.46
2023-02-12T05:00:55.478Z,3.41
2023-02-12T05:05:57.929Z,3.40
2023-02-12T05:11:00.374Z,3.42
2023-02-12T05:16:03.436Z,3.46
2023-02-12T05:21:05.808Z,3.49
2023-02-12T05:26:08.081Z,3.41
2023-02-12T05:31:10.525Z,3.44
2023-02-12T05:36:12.855Z,3.41
2023-02-12T05:41:15.120Z,3.35
2023-02-12T05:46:17.445Z,3.32
2023-02-12T05:51:20.241Z,3.18
2023-02-12T05:56:22.550Z,2.96
2023-02-12T06:01:24.857Z,2.98
2023-02-12T06:06:27.164Z,2.92
2023-02-12T06:11:29.528Z,2.95
2023-02-12T06:16:31.856Z,2.89
2023-02-12T06:21:34.568Z,2.79
2023-02-12T06:26:36.866Z,2.85
2023-02-12T06:31:39.270Z,2.79
2023-02-12T06:36:41.623Z,2.83
2023-02-12T06:41:43.901Z,2.88
2023-02-12T06:46:46.268Z,2.83
2023-02-12T06:51:48.660Z,2.97
2023-02-12T06:56:50.951Z,3.08
2023-02-12T07:01:53.303Z,3.14
2023-02-12T07:06:55.580Z,3.32
2023-02-12T07:11:58.004Z,3.43
2023-02-12T07:17:03.656Z,3.47
2023-02-12T07:22:06.046Z,3.55
2023-02-12T07:27:08.469Z,3.69
2023-02-12T07:32:10.891Z,4.03
2023-02-12T07:37:13.230Z,4.20
2023-02-12T07:42:15.567Z,4.04
2023-02-12T07:47:17.830Z,4.21
2023-02-12T07:52:20.261Z,4.55
2023-02-12T07:57:22.673Z,4.64
2023-02-12T08:02:26.034Z,4.57
2023-02-12T08:07:28.477Z,4.82
2023-02-12T08:12:30.782Z,4.75
2023-02-12T08:17:33.088Z,4.97
2023-02-12T08:22:35.384Z,4.87
2023-02-12T08:27:37.703Z,5.00
2023-02-12T08:32:40.015Z,5.12
2023-02-12T08:37:42.310Z,5.19
2023-02-12T08:42:44.639Z,5.36
2023-02-12T08:47:46.922Z,5.42
2023-02-12T08:52:49.249Z,5.74
2023-02-12T08:57:53.276Z,5.46
2023-02-12T09:02:55.612Z,5.84
2023-02-12T09:07:57.929Z,6.14
2023-02-12T09:13:00.236Z,6.03
2023-02-12T09:18:04.011Z,6.17
2023-02-12T09:23:06.918Z,6.00
2023-02-12T09:28:09.265Z,6.10
2023-02-12T09:33:11.576Z,6.10
2023-02-12T09:38:13.977Z,6.43
2023-02-12T09:43:17.925Z,6.64
2023-02-12T09:48:20.191Z,6.17
2023-02-12T09:53:22.487Z,6.99
2023-02-12T09:58:24.875Z,7.26
2023-02-12T10:03:28.324Z,7.41
2023-02-12T10:08:30.720Z,6.80
2023-02-12T10:13:35.220Z,6.65
2023-02-12T10:18:37.598Z,6.68
2023-02-12T10:23:39.959Z,6.94
2023-02-12T10:28:42.466Z,6.84
2023-02-12T10:33:44.823Z,6.78
2023-02-12T10:38:47.325Z,6.71
2023-02-12T10:43:49.691Z,6.70
2023-02-12T10:48:54.016Z,6.53
2023-02-12T10:53:56.376Z,6.46
2023-02-12T10:58:59.453Z,6.56
2023-02-12T11:04:01.852Z,6.98
2023-02-12T11:09:04.735Z,6.88
2023-02-12T11:14:07.116Z,6.89
2023-02-12T11:19:09.466Z,7.10
2023-02-12T11:24:11.853Z,7.46
2023-02-12T11:29:14.287Z,7.45
2023-02-12T11:34:16.934Z,7.65
2023-02-12T11:39:19.282Z,7.30
2023-02-12T11:44:21.723Z,6.90
2023-02-12T11:49:24.097Z,6.78
2023-02-12T11:54:26.641Z,6.66
2023-02-12T11:59:28.928Z,6.30
2023-02-12T12:04:31.837Z,6.30
2023-02-12T12:09:34.841Z,6.28
2023-02-12T12:14:57.240Z,6.48
2023-02-12T12:19:59.631Z,6.76
2023-02-12T12:25:01.926Z,7.01
2023-02-12T12:30:06.882Z,7.55
2023-02-12T12:35:09.280Z,8.32
2023-02-12T12:40:11.592Z,8.25
2023-02-12T12:45:13.981Z,8.15
2023-02-12T12:50:16.262Z,7.73
2023-02-12T12:55:18.622Z,7.44
2023-02-12T13:00:22.306Z,7.34
2023-02-12T13:05:25.541Z,7.26
2023-02-12T13:10:27.842Z,7.26
2023-02-12T13:15:30.223Z,7.02
2023-02-12T13:20:32.500Z,7.21
2023-02-12T13:25:34.879Z,7.39
2023-02-12T13:30:37.140Z,7.29
2023-02-12T13:35:39.442Z,7.64
2023-02-12T13:40:42.053Z,7.13
2023-02-12T13:45:44.708Z,7.38
2023-02-12T13:50:47.117Z,7.56
2023-02-12T13:55:49.456Z,7.25
2023-02-12T14:00:51.727Z,6.91
2023-02-12T14:05:54.299Z,6.29
2023-02-12T14:10:57.027Z,6.40
2023-02-12T14:15:59.890Z,6.33
2023-02-12T14:21:02.375Z,6.25
2023-02-12T14:26:05.020Z,6.30
2023-02-12T14:31:07.353Z,6.15
2023-02-12T14:36:09.720Z,6.04
2023-02-12T14:41:32.056Z,6.04
2023-02-12T14:46:34.414Z,5.85
2023-02-12T14:51:36.732Z,5.77
2023-02-12T14:56:39.007Z,5.74
2023-02-12T15:01:41.334Z,5.73
2023-02-12T15:06:43.637Z,5.69
2023-02-12T15:11:46.004Z,5.69
2023-02-12T15:16:48.274Z,5.63
2023-02-12T15:21:50.631Z,5.63
2023-02-12T15:26:52.949Z,5.51
2023-02-12T15:31:55.378Z,5.46
2023-02-12T15:36:57.730Z,5.43
2023-02-12T15:42:00.009Z,5.22
2023-02-12T15:47:02.312Z,5.11
2023-02-12T15:52:04.657Z,5.06
2023-02-12T15:57:06.971Z,4.99
2023-02-12T16:02:09.356Z,4.83
2023-02-12T16:07:11.652Z,4.75
2023-02-12T16:12:14.039Z,4.64
2023-02-12T16:17:16.726Z,4.58
2023-02-12T16:22:19.622Z,4.46
2023-02-12T16:27:21.952Z,4.31
2023-02-12T16:32:24.358Z,4.19
2023-02-12T16:37:26.728Z,4.12
2023-02-12T16:42:29.654Z,3.99
2023-02-12T16:47:32.086Z,3.90
2023-02-12T16:52:34.476Z,3.83
2023-02-12T16:57:36.821Z,3.74
2023-02-12T17:02:39.160Z,3.59
2023-02-12T17:07:41.623Z,3.55
2023-02-12T17:12:43.932Z,3.45
2023-02-12T17:17:46.235Z,3.33
2023-02-12T17:22:48.554Z,3.29
2023-02-12T17:27:50.893Z,3.21
2023-02-12T17:32:53.223Z,3.14
2023-02-12T17:37:55.581Z,3.07
2023-02-12T17:42:58.560Z,2.92
2023-02-12T17:48:01.131Z,2.94
2023-02-12T17:53:03.520Z,2.89
2023-02-12T17:58:05.923Z,2.87
2023-02-12T18:03:08.372Z,2.74
2023-02-12T18:08:10.682Z,2.65
2023-02-12T18:13:13.776Z,2.54
2023-02-12T18:18:17.893Z,2.43
2023-02-12T18:23:20.323Z,2.36
2023-02-12T18:28:22.825Z,2.24
2023-02-12T18:33:25.201Z,2.13
2023-02-12T18:38:27.681Z,2.07
2023-02-12T18:43:30.078Z,2.03
2023-02-12T18:48:33.196Z,1.90
2023-02-12T18:53:35.533Z,1.85
2023-02-12T18:58:38.138Z,1.77
2023-02-12T19:03:40.573Z,1.68
2023-02-12T19:08:42.969Z,1.65
2023-02-12T19:13:45.377Z,1.53
2023-02-12T19:18:47.947Z,1.48
2023-02-12T19:23:50.293Z,1.45
2023-02-12T19:28:52.909Z,1.32
2023-02-12T19:33:55.367Z,1.26
2023-02-12T19:38:57.774Z,1.27
2023-02-12T19:44:00.141Z,1.27
2023-02-12T19:49:02.556Z,1.24
2023-02-12T19:54:05.248Z,1.23
2023-02-12T19:59:07.562Z,1.24
2023-02-12T20:04:09.951Z,1.24
2023-02-12T20:09:12.434Z,1.29
2023-02-12T20:14:14.851Z,1.20
2023-02-12T20:19:17.477Z,1.19
2023-02-12T20:24:19.868Z,1.10
2023-02-12T20:29:22.348Z,1.00
2023-02-12T20:34:24.782Z,1.01
2023-02-12T20:39:27.175Z,1.02
2023-02-12T20:44:29.764Z,0.96
2023-02-12T20:49:32.130Z,0.99
2023-02-12T20:54:34.660Z,1.07
2023-02-12T20:59:37.053Z,1.11
2023-02-12T21:04:39.414Z,1.14
2023-02-12T21:09:41.799Z,1.07
2023-02-12T21:14:44.135Z,0.97
2023-02-12T21:19:46.547Z,0.90
2023-02-12T21:24:48.937Z,0.81
2023-02-12T21:29:51.435Z,0.86
2023-02-12T21:34:53.761Z,0.84
2023-02-12T21:39:56.169Z,0.91
2023-02-12T21:44:58.568Z,0.75
2023-02-12T21:50:00.977Z,0.74
2023-02-12T21:55:03.434Z,0.53
2023-02-12T22:00:06.370Z,0.56
2023-02-12T22:05:09.022Z,0.49
2023-02-12T22:10:11.422Z,0.63
2023-02-12T22:15:13.887Z,0.72
2023-02-12T22:20:16.543Z,0.68
2023-02-12T22:25:18.895Z,0.83
2023-02-12T22:30:21.216Z,0.59
2023-02-12T22:35:23.557Z,0.63
2023-02-12T22:40:25.941Z,0.59
2023-02-12T22:45:28.488Z,0.39
2023-02-12T22:50:31.003Z,0.42
2023-02-12T22:55:33.371Z,0.32
2023-02-12T23:00:35.715Z,0.39
2023-02-12T23:05:38.140Z,0.26
2023-02-12T23:10:40.689Z,0.33
2023-02-12T23:15:43.157Z,0.30
2023-02-12T23:20:45.568Z,0.45
2023-02-12T23:25:47.989Z,0.29
2023-02-12T23:30:50.726Z,0.32
2023-02-12T23:35:53.276Z,0.37
2023-02-12T23:40:56.112Z,0.39
2023-02-12T23:45:58.820Z,0.25
2023-02-12T23:51:01.387Z,0.36
2023-02-12T23:56:03.849Z,0.32
